sensor_id;sensor_type;location;lat;lon;timestamp;temperature;humidity
53645;DHT22;39547;45.554;12.068;2024-03-06T00:05:08;12.40;90.70
53645;DHT22;39547;45.554;12.068;2024-03-06T00:11:09;12.40;90.60
53645;DHT22;39547;45.554;12.068;2024-03-06T00:17:12;12.30;90.60
53645;DHT22;39547;45.554;12.068;2024-03-06T00:23:13;12.30;90.60
53645;DHT22;39547;45.554;12.068;2024-03-06T00:29:16;12.30;90.60
53645;DHT22;39547;45.554;12.068;2024-03-06T00:35:18;12.20;90.50
53645;DHT22;39547;45.554;12.068;2024-03-06T00:41:20;12.20;90.60
53645;DHT22;39547;45.554;12.068;2024-03-06T00:47:22;12.20;90.50
53645;DHT22;39547;45.554;12.068;2024-03-06T00:53:24;12.10;90.30
53645;DHT22;39547;45.554;12.068;2024-03-06T00:59:26;12.10;90.30
53645;DHT22;39547;45.554;12.068;2024-03-06T01:05:27;12.00;90.40
53645;DHT22;39547;45.554;12.068;2024-03-06T01:11:29;12.00;90.50
53645;DHT22;39547;45.554;12.068;2024-03-06T01:17:31;12.00;90.40
53645;DHT22;39547;45.554;12.068;2024-03-06T01:23:32;12.00;90.30
53645;DHT22;39547;45.554;12.068;2024-03-06T01:29:34;11.90;90.30
53645;DHT22;39547;45.554;12.068;2024-03-06T01:35:36;11.90;90.30
53645;DHT22;39547;45.554;12.068;2024-03-06T01:41:50;11.80;90.10
53645;DHT22;39547;45.554;12.068;2024-03-06T01:47:52;11.80;90.10
53645;DHT22;39547;45.554;12.068;2024-03-06T01:53:54;11.70;90.20
53645;DHT22;39547;45.554;12.068;2024-03-06T01:59:55;11.70;90.10
53645;DHT22;39547;45.554;12.068;2024-03-06T02:06:00;11.70;90.30
53645;DHT22;39547;45.554;12.068;2024-03-06T02:12:04;11.70;90.10
53645;DHT22;39547;45.554;12.068;2024-03-06T02:18:06;11.50;90.00
53645;DHT22;39547;45.554;12.068;2024-03-06T02:24:09;11.30;90.00
53645;DHT22;39547;45.554;12.068;2024-03-06T02:30:14;11.20;90.10
53645;DHT22;39547;45.554;12.068;2024-03-06T02:36:18;11.20;90.30
53645;DHT22;39547;45.554;12.068;2024-03-06T02:42:20;11.00;90.40
53645;DHT22;39547;45.554;12.068;2024-03-06T02:48:21;10.90;90.50
53645;DHT22;39547;45.554;12.068;2024-03-06T02:54:24;10.90;90.50
53645;DHT22;39547;45.554;12.068;2024-03-06T03:00:26;10.80;90.60
53645;DHT22;39547;45.554;12.068;2024-03-06T03:06:31;10.70;90.70
53645;DHT22;39547;45.554;12.068;2024-03-06T03:12:33;10.70;90.70
53645;DHT22;39547;45.554;12.068;2024-03-06T03:18:35;10.70;90.70
53645;DHT22;39547;45.554;12.068;2024-03-06T03:24:36;10.60;90.70
53645;DHT22;39547;45.554;12.068;2024-03-06T03:30:38;10.60;90.80
53645;DHT22;39547;45.554;12.068;2024-03-06T03:36:43;10.50;90.70
53645;DHT22;39547;45.554;12.068;2024-03-06T03:42:45;10.50;90.80
53645;DHT22;39547;45.554;12.068;2024-03-06T03:48:46;10.50;90.80
53645;DHT22;39547;45.554;12.068;2024-03-06T03:54:48;10.40;90.80
53645;DHT22;39547;45.554;12.068;2024-03-06T04:00:50;10.30;90.80
53645;DHT22;39547;45.554;12.068;2024-03-06T04:06:54;10.30;90.80
53645;DHT22;39547;45.554;12.068;2024-03-06T04:12:55;10.20;90.90
53645;DHT22;39547;45.554;12.068;2024-03-06T04:18:57;10.20;91.10
53645;DHT22;39547;45.554;12.068;2024-03-06T04:24:59;10.20;91.10
53645;DHT22;39547;45.554;12.068;2024-03-06T04:31:00;10.20;91.20
53645;DHT22;39547;45.554;12.068;2024-03-06T04:37:02;10.30;91.40
53645;DHT22;39547;45.554;12.068;2024-03-06T04:43:04;10.30;91.50
53645;DHT22;39547;45.554;12.068;2024-03-06T04:49:06;10.40;91.50
53645;DHT22;39547;45.554;12.068;2024-03-06T04:55:08;10.40;91.60
53645;DHT22;39547;45.554;12.068;2024-03-06T05:01:13;10.50;91.80
53645;DHT22;39547;45.554;12.068;2024-03-06T05:07:15;10.60;91.70
53645;DHT22;39547;45.554;12.068;2024-03-06T05:13:17;10.70;91.60
53645;DHT22;39547;45.554;12.068;2024-03-06T05:19:18;10.70;91.80
53645;DHT22;39547;45.554;12.068;2024-03-06T05:25:21;10.70;91.90
53645;DHT22;39547;45.554;12.068;2024-03-06T05:31:23;10.70;91.90
53645;DHT22;39547;45.554;12.068;2024-03-06T05:37:25;10.80;91.90
53645;DHT22;39547;45.554;12.068;2024-03-06T05:43:27;10.80;92.00
53645;DHT22;39547;45.554;12.068;2024-03-06T05:49:29;10.90;92.00
53645;DHT22;39547;45.554;12.068;2024-03-06T05:55:31;10.90;92.10
53645;DHT22;39547;45.554;12.068;2024-03-06T06:01:33;10.90;92.10
53645;DHT22;39547;45.554;12.068;2024-03-06T06:07:35;11.00;92.20
53645;DHT22;39547;45.554;12.068;2024-03-06T06:13:37;11.00;92.20
53645;DHT22;39547;45.554;12.068;2024-03-06T06:19:42;11.00;92.20
53645;DHT22;39547;45.554;12.068;2024-03-06T06:25:52;11.10;92.30
53645;DHT22;39547;45.554;12.068;2024-03-06T06:31:54;11.20;92.40
53645;DHT22;39547;45.554;12.068;2024-03-06T06:37:58;11.20;92.40
53645;DHT22;39547;45.554;12.068;2024-03-06T06:44:00;11.20;92.30
53645;DHT22;39547;45.554;12.068;2024-03-06T06:50:09;11.30;92.40
53645;DHT22;39547;45.554;12.068;2024-03-06T06:56:32;11.30;92.30
53645;DHT22;39547;45.554;12.068;2024-03-06T07:02:33;11.40;92.40
53645;DHT22;39547;45.554;12.068;2024-03-06T07:08:38;11.50;92.50
53645;DHT22;39547;45.554;12.068;2024-03-06T07:14:49;11.60;92.40
53645;DHT22;39547;45.554;12.068;2024-03-06T07:20:50;11.70;92.50
53645;DHT22;39547;45.554;12.068;2024-03-06T07:26:52;11.80;92.40
53645;DHT22;39547;45.554;12.068;2024-03-06T07:32:54;11.90;92.10
53645;DHT22;39547;45.554;12.068;2024-03-06T07:39:05;11.90;91.90
53645;DHT22;39547;45.554;12.068;2024-03-06T07:45:17;12.00;91.80
53645;DHT22;39547;45.554;12.068;2024-03-06T07:51:22;12.20;91.70
53645;DHT22;39547;45.554;12.068;2024-03-06T07:57:39;12.20;91.70
53645;DHT22;39547;45.554;12.068;2024-03-06T08:04:01;12.30;91.40
53645;DHT22;39547;45.554;12.068;2024-03-06T08:10:17;12.30;91.50
53645;DHT22;39547;45.554;12.068;2024-03-06T08:16:20;12.50;91.40
53645;DHT22;39547;45.554;12.068;2024-03-06T08:22:30;12.50;90.90
53645;DHT22;39547;45.554;12.068;2024-03-06T08:28:37;12.60;90.60
53645;DHT22;39547;45.554;12.068;2024-03-06T08:34:45;12.60;90.00
53645;DHT22;39547;45.554;12.068;2024-03-06T08:40:52;12.70;89.90
53645;DHT22;39547;45.554;12.068;2024-03-06T08:47:18;12.90;90.10
53645;DHT22;39547;45.554;12.068;2024-03-06T08:53:20;13.20;89.80
53645;DHT22;39547;45.554;12.068;2024-03-06T08:59:25;13.30;88.60
53645;DHT22;39547;45.554;12.068;2024-03-06T09:05:29;13.40;88.60
53645;DHT22;39547;45.554;12.068;2024-03-06T09:11:34;13.40;87.90
53645;DHT22;39547;45.554;12.068;2024-03-06T09:17:40;13.50;87.10
53645;DHT22;39547;45.554;12.068;2024-03-06T09:23:44;13.70;87.20
53645;DHT22;39547;45.554;12.068;2024-03-06T09:29:45;13.80;86.00
53645;DHT22;39547;45.554;12.068;2024-03-06T09:35:53;13.90;86.10
53645;DHT22;39547;45.554;12.068;2024-03-06T09:41:59;14.10;86.20
53645;DHT22;39547;45.554;12.068;2024-03-06T09:48:03;14.10;85.90
53645;DHT22;39547;45.554;12.068;2024-03-06T09:54:10;14.10;85.40
53645;DHT22;39547;45.554;12.068;2024-03-06T10:00:13;14.20;84.80
53645;DHT22;39547;45.554;12.068;2024-03-06T10:06:14;14.30;85.30
53645;DHT22;39547;45.554;12.068;2024-03-06T10:12:18;14.50;85.70
53645;DHT22;39547;45.554;12.068;2024-03-06T10:18:30;14.80;83.50
53645;DHT22;39547;45.554;12.068;2024-03-06T10:24:31;14.90;82.50
53645;DHT22;39547;45.554;12.068;2024-03-06T10:30:34;14.90;82.50
53645;DHT22;39547;45.554;12.068;2024-03-06T10:36:37;15.10;81.60
53645;DHT22;39547;45.554;12.068;2024-03-06T10:42:41;15.00;80.50
53645;DHT22;39547;45.554;12.068;2024-03-06T10:48:46;14.70;80.50
53645;DHT22;39547;45.554;12.068;2024-03-06T10:54:52;14.30;82.00
53645;DHT22;39547;45.554;12.068;2024-03-06T11:00:59;14.30;81.40
53645;DHT22;39547;45.554;12.068;2024-03-06T11:07:03;14.60;81.10
53645;DHT22;39547;45.554;12.068;2024-03-06T11:19:22;15.00;80.00
53645;DHT22;39547;45.554;12.068;2024-03-06T11:32:06;14.40;80.50
53645;DHT22;39547;45.554;12.068;2024-03-06T11:38:09;14.20;81.40
53645;DHT22;39547;45.554;12.068;2024-03-06T11:44:21;14.30;81.40
53645;DHT22;39547;45.554;12.068;2024-03-06T11:50:26;14.50;80.60
53645;DHT22;39547;45.554;12.068;2024-03-06T11:56:29;14.60;79.90
53645;DHT22;39547;45.554;12.068;2024-03-06T12:02:31;14.60;80.00
53645;DHT22;39547;45.554;12.068;2024-03-06T12:08:39;14.70;80.90
53645;DHT22;39547;45.554;12.068;2024-03-06T12:14:44;14.70;79.80
53645;DHT22;39547;45.554;12.068;2024-03-06T12:21:01;14.60;79.40
53645;DHT22;39547;45.554;12.068;2024-03-06T12:27:05;14.30;79.00
53645;DHT22;39547;45.554;12.068;2024-03-06T12:33:07;14.20;79.70
53645;DHT22;39547;45.554;12.068;2024-03-06T12:39:09;14.20;80.60
53645;DHT22;39547;45.554;12.068;2024-03-06T12:45:16;14.10;79.60
53645;DHT22;39547;45.554;12.068;2024-03-06T12:51:18;14.10;80.40
53645;DHT22;39547;45.554;12.068;2024-03-06T12:57:40;14.20;80.90
53645;DHT22;39547;45.554;12.068;2024-03-06T13:03:45;14.40;79.40
53645;DHT22;39547;45.554;12.068;2024-03-06T13:09:50;14.60;78.70
53645;DHT22;39547;45.554;12.068;2024-03-06T13:15:53;15.00;78.80
53645;DHT22;39547;45.554;12.068;2024-03-06T13:21:57;15.20;77.90
53645;DHT22;39547;45.554;12.068;2024-03-06T13:27:59;15.40;78.80
53645;DHT22;39547;45.554;12.068;2024-03-06T13:34:01;15.50;76.10
53645;DHT22;39547;45.554;12.068;2024-03-06T13:40:08;15.70;77.30
53645;DHT22;39547;45.554;12.068;2024-03-06T13:46:32;15.90;76.30
53645;DHT22;39547;45.554;12.068;2024-03-06T13:52:34;15.80;76.30
53645;DHT22;39547;45.554;12.068;2024-03-06T13:58:36;15.80;76.60
53645;DHT22;39547;45.554;12.068;2024-03-06T14:04:38;15.80;76.80
53645;DHT22;39547;45.554;12.068;2024-03-06T14:10:40;16.00;76.50
53645;DHT22;39547;45.554;12.068;2024-03-06T14:16:45;16.10;74.70
53645;DHT22;39547;45.554;12.068;2024-03-06T14:22:51;16.00;74.60
53645;DHT22;39547;45.554;12.068;2024-03-06T14:28:56;15.50;75.50
53645;DHT22;39547;45.554;12.068;2024-03-06T14:35:01;15.00;76.00
53645;DHT22;39547;45.554;12.068;2024-03-06T14:41:05;14.90;77.40
53645;DHT22;39547;45.554;12.068;2024-03-06T14:47:11;14.90;77.90
53645;DHT22;39547;45.554;12.068;2024-03-06T14:53:16;15.20;78.70
53645;DHT22;39547;45.554;12.068;2024-03-06T14:59:21;16.00;76.10
53645;DHT22;39547;45.554;12.068;2024-03-06T15:05:23;16.40;76.00
53645;DHT22;39547;45.554;12.068;2024-03-06T15:11:25;16.60;75.60
53645;DHT22;39547;45.554;12.068;2024-03-06T15:17:26;16.60;74.30
53645;DHT22;39547;45.554;12.068;2024-03-06T15:23:28;16.60;73.70
53645;DHT22;39547;45.554;12.068;2024-03-06T15:29:30;16.30;74.00
53645;DHT22;39547;45.554;12.068;2024-03-06T15:35:32;15.80;73.40
53645;DHT22;39547;45.554;12.068;2024-03-06T15:41:33;15.60;72.40
53645;DHT22;39547;45.554;12.068;2024-03-06T15:47:35;15.30;73.30
53645;DHT22;39547;45.554;12.068;2024-03-06T15:53:39;15.00;73.50
53645;DHT22;39547;45.554;12.068;2024-03-06T15:59:41;14.70;73.40
53645;DHT22;39547;45.554;12.068;2024-03-06T16:05:43;14.50;74.80
53645;DHT22;39547;45.554;12.068;2024-03-06T16:11:45;14.30;75.60
53645;DHT22;39547;45.554;12.068;2024-03-06T16:17:46;14.20;76.30
53645;DHT22;39547;45.554;12.068;2024-03-06T16:23:48;14.00;77.40
53645;DHT22;39547;45.554;12.068;2024-03-06T16:29:50;13.80;77.70
53645;DHT22;39547;45.554;12.068;2024-03-06T16:35:52;13.70;77.80
53645;DHT22;39547;45.554;12.068;2024-03-06T16:41:54;13.50;78.60
53645;DHT22;39547;45.554;12.068;2024-03-06T16:47:55;13.30;79.00
53645;DHT22;39547;45.554;12.068;2024-03-06T16:54:01;13.20;79.40
53645;DHT22;39547;45.554;12.068;2024-03-06T17:00:05;13.20;79.60
53645;DHT22;39547;45.554;12.068;2024-03-06T17:06:07;13.00;80.10
53645;DHT22;39547;45.554;12.068;2024-03-06T17:12:09;12.90;80.60
53645;DHT22;39547;45.554;12.068;2024-03-06T17:18:12;12.80;80.90
53645;DHT22;39547;45.554;12.068;2024-03-06T17:24:13;12.80;81.50
53645;DHT22;39547;45.554;12.068;2024-03-06T17:30:15;12.70;81.50
53645;DHT22;39547;45.554;12.068;2024-03-06T17:36:17;12.70;81.70
53645;DHT22;39547;45.554;12.068;2024-03-06T17:42:19;12.60;82.00
53645;DHT22;39547;45.554;12.068;2024-03-06T17:48:20;12.60;82.30
53645;DHT22;39547;45.554;12.068;2024-03-06T17:54:22;12.50;82.50
53645;DHT22;39547;45.554;12.068;2024-03-06T18:00:24;12.50;82.90
53645;DHT22;39547;45.554;12.068;2024-03-06T18:06:27;12.40;83.10
53645;DHT22;39547;45.554;12.068;2024-03-06T18:12:28;12.40;83.20
53645;DHT22;39547;45.554;12.068;2024-03-06T18:18:30;12.30;83.50
53645;DHT22;39547;45.554;12.068;2024-03-06T18:24:31;12.30;83.70
53645;DHT22;39547;45.554;12.068;2024-03-06T18:30:33;12.30;83.90
53645;DHT22;39547;45.554;12.068;2024-03-06T18:36:34;12.20;84.10
53645;DHT22;39547;45.554;12.068;2024-03-06T18:42:36;12.20;84.30
53645;DHT22;39547;45.554;12.068;2024-03-06T18:48:40;12.20;84.60
53645;DHT22;39547;45.554;12.068;2024-03-06T18:54:42;12.20;84.90
53645;DHT22;39547;45.554;12.068;2024-03-06T19:00:44;12.20;85.00
53645;DHT22;39547;45.554;12.068;2024-03-06T19:06:46;12.20;85.10
53645;DHT22;39547;45.554;12.068;2024-03-06T19:12:47;12.20;85.10
53645;DHT22;39547;45.554;12.068;2024-03-06T19:18:49;12.10;85.20
53645;DHT22;39547;45.554;12.068;2024-03-06T19:24:51;12.10;85.30
53645;DHT22;39547;45.554;12.068;2024-03-06T19:30:53;12.20;85.20
53645;DHT22;39547;45.554;12.068;2024-03-06T19:36:55;12.10;85.10
53645;DHT22;39547;45.554;12.068;2024-03-06T19:42:57;12.10;85.30
53645;DHT22;39547;45.554;12.068;2024-03-06T19:48:58;12.10;85.10
53645;DHT22;39547;45.554;12.068;2024-03-06T19:55:00;12.10;85.00
53645;DHT22;39547;45.554;12.068;2024-03-06T20:01:02;12.10;84.90
53645;DHT22;39547;45.554;12.068;2024-03-06T20:07:03;12.10;84.70
53645;DHT22;39547;45.554;12.068;2024-03-06T20:13:05;12.00;84.50
53645;DHT22;39547;45.554;12.068;2024-03-06T20:19:07;12.00;84.30
53645;DHT22;39547;45.554;12.068;2024-03-06T20:25:09;12.00;84.30
53645;DHT22;39547;45.554;12.068;2024-03-06T20:31:11;11.90;83.40
53645;DHT22;39547;45.554;12.068;2024-03-06T20:37:13;11.90;83.80
53645;DHT22;39547;45.554;12.068;2024-03-06T20:43:16;11.80;84.30
53645;DHT22;39547;45.554;12.068;2024-03-06T20:49:20;11.90;84.50
53645;DHT22;39547;45.554;12.068;2024-03-06T20:55:23;11.80;84.80
53645;DHT22;39547;45.554;12.068;2024-03-06T21:01:24;11.80;84.60
53645;DHT22;39547;45.554;12.068;2024-03-06T21:07:26;11.80;84.90
53645;DHT22;39547;45.554;12.068;2024-03-06T21:13:28;11.80;85.00
53645;DHT22;39547;45.554;12.068;2024-03-06T21:19:29;11.70;85.00
53645;DHT22;39547;45.554;12.068;2024-03-06T21:25:32;11.70;85.30
53645;DHT22;39547;45.554;12.068;2024-03-06T21:31:34;11.60;85.50
53645;DHT22;39547;45.554;12.068;2024-03-06T21:37:36;11.50;85.60
53645;DHT22;39547;45.554;12.068;2024-03-06T21:43:37;11.50;86.00
53645;DHT22;39547;45.554;12.068;2024-03-06T21:49:39;11.50;85.90
53645;DHT22;39547;45.554;12.068;2024-03-06T21:55:41;11.50;86.10
53645;DHT22;39547;45.554;12.068;2024-03-06T22:01:43;11.40;85.90
53645;DHT22;39547;45.554;12.068;2024-03-06T22:07:44;11.40;86.30
53645;DHT22;39547;45.554;12.068;2024-03-06T22:13:47;11.30;86.50
53645;DHT22;39547;45.554;12.068;2024-03-06T22:19:48;11.30;86.60
53645;DHT22;39547;45.554;12.068;2024-03-06T22:25:50;11.30;86.80
53645;DHT22;39547;45.554;12.068;2024-03-06T22:31:52;11.30;86.80
53645;DHT22;39547;45.554;12.068;2024-03-06T22:37:53;11.30;86.70
53645;DHT22;39547;45.554;12.068;2024-03-06T22:43:55;11.30;86.90
53645;DHT22;39547;45.554;12.068;2024-03-06T22:49:57;11.20;87.10
53645;DHT22;39547;45.554;12.068;2024-03-06T22:55:58;11.20;87.00
53645;DHT22;39547;45.554;12.068;2024-03-06T23:02:00;11.20;87.30
53645;DHT22;39547;45.554;12.068;2024-03-06T23:08:02;11.10;87.40
53645;DHT22;39547;45.554;12.068;2024-03-06T23:14:05;11.10;87.50
53645;DHT22;39547;45.554;12.068;2024-03-06T23:20:08;11.10;87.50
53645;DHT22;39547;45.554;12.068;2024-03-06T23:26:09;11.10;87.40
53645;DHT22;39547;45.554;12.068;2024-03-06T23:32:11;11.00;87.50
53645;DHT22;39547;45.554;12.068;2024-03-06T23:38:13;10.90;87.30
53645;DHT22;39547;45.554;12.068;2024-03-06T23:44:14;10.90;87.70
53645;DHT22;39547;45.554;12.068;2024-03-06T23:50:16;10.80;87.90
53645;DHT22;39547;45.554;12.068;2024-03-06T23:56:20;10.80;87.80
